Las Nutrias, New Mexico
Current Conditions -  °F | °C
As of 6:55 AM on Saturday 20 Dec 2014 (Local Time) from KE80 Reporting Station
Clear Clear  
Wind Chill: 13°   Ceiling: Unl
Heat Index: 21°   Visibility: 10mi
Dew Point: 19°   Wind: 6mph
Humidity: 93%   Direction: 330°NNW
Pressure: 30.16"   Gusts: NA
Location:  34.445°N, 106.689°W
Report Text: KE80 201355Z AUTO 33005KT 10SM CLR M06/M07 A3016 RMK AO2 T10611070
Loading
Personal Weather Stations






























Interactive Weather Map New forecast layout! Learn more

10-Day Weather Forecast

Advertisements
Track Severe Weather on mobile